M I D A S
Marine Information and Data Acquisition System
Tripno 646 of the Zeeleeuw from 2004-02-11 07:52:58 to 2004-02-11 17:59:42
Back to CruiseResearch ActivitiesStationsMapUnderway DataData graphs

EquipmentUnitsComment
TimeDGPSUTC
LatitudeDGPSDM.mWGS84
LongitudeDGPSDM.mWGS84
HeadingGyrodeg 
SOGDGPSknotsSpeed over ground
COGDGPSdegCourse over ground
DepthEcho soundermeters200 kHz
Missing or incorrect values are displayed as -999
Navigation data collected by the RV Zeeleeuw from 2004-02-11 07:52:58 to 2004-02-11 17:59:42
                                                                                    Next 1000 lines
Time Latitude Longitude Heading SOG COG Depth
2004-02-11 07:53:06 51°13.602 2°56.068 116.8 3.5 294 -999
2004-02-11 07:53:10 51°13.603 2°56.062 116.9 3.8 294 -999
2004-02-11 07:53:15 51°13.606 2°56.054 116.9 4 294 -999
2004-02-11 07:53:21 51°13.608 2°56.043 116.9 4.2 293 -999
2004-02-11 07:53:26 51°13.611 2°56.034 116.9 4.4 293 -999
2004-02-11 07:53:31 51°13.614 2°56.025 116.9 4.5 293 -999
2004-02-11 07:53:35 51°13.616 2°56.018 117.3 4.6 293 -999
2004-02-11 07:53:41 51°13.619 2°56.006 117.9 4.7 293 -999
2004-02-11 07:53:46 51°13.622 2°55.996 118.8 4.8 294 -999
2004-02-11 07:53:51 51°13.625 2°55.986 119.9 4.9 294 -999
2004-02-11 07:53:55 51°13.627 2°55.978 121.6 5.1 296 -999
2004-02-11 07:54:01 51°13.631 2°55.966 122.4 5.2 297 -999
2004-02-11 07:54:06 51°13.634 2°55.956 123.3 5.2 298 -999
2004-02-11 07:54:11 51°13.637 2°55.946 123.7 5.2 298 -999
2004-02-11 07:54:15 51°13.64 2°55.937 124.1 5.2 299 -999
2004-02-11 07:54:21 51°13.644 2°55.925 124.7 5.2 299 -999
2004-02-11 07:54:26 51°13.648 2°55.915 125 5.2 300 -999
2004-02-11 07:54:31 51°13.652 2°55.905 125.4 5.2 300 -999
2004-02-11 07:54:35 51°13.655 2°55.897 125.5 5.2 301 -999
2004-02-11 07:54:41 51°13.659 2°55.885 125.5 5.3 301 -999
2004-02-11 07:54:46 51°13.663 2°55.875 125.5 5.3 301 -999
2004-02-11 07:54:50 51°13.666 2°55.867 125.5 5.3 301 -999
2004-02-11 07:54:55 51°13.67 2°55.857 125.7 5.3 302 -999
2004-02-11 07:55:01 51°13.675 2°55.846 126.1 5.3 302 -999
2004-02-11 07:55:06 51°13.679 2°55.836 126.4 5 303 -999
2004-02-11 07:55:11 51°13.682 2°55.828 127.5 4.8 302 9.2
2004-02-11 07:55:15 51°13.684 2°55.822 128.5 3.9 303 9.4
2004-02-11 07:55:19 51°13.686 2°55.818 128.5 3.4 301 10
2004-02-11 07:55:25 51°13.687 2°55.815 127 2.4 299 10.4
2004-02-11 07:55:30 51°13.687 2°55.814 123.3 0.3 306 10.5
2004-02-11 07:55:35 51°13.687 2°55.816 117.9 0.6 96 10.4
2004-02-11 07:55:41 51°13.687 2°55.819 109.9 1 104 10.3
2004-02-11 07:55:45 51°13.687 2°55.82 103.2 0.7 89 10
2004-02-11 07:55:50 51°13.686 2°55.821 99.3 0.3 104 9.9
2004-02-11 07:55:55 51°13.687 2°55.82 95.8 0.1 298 10
2004-02-11 07:55:59 51°13.686 2°55.819 92.9 0.7 263 10.1
2004-02-11 07:56:05 51°13.686 2°55.816 90.9 1.2 264 10.4
2004-02-11 07:56:10 51°13.686 2°55.812 89.9 1.2 264 10.6
2004-02-11 07:56:15 51°13.686 2°55.808 89.2 1.8 267 10.8
2004-02-11 07:56:19 51°13.686 2°55.804 88.5 2.2 265 -999
2004-02-11 07:56:26 51°13.685 2°55.796 87.9 2.5 264 -999
2004-02-11 07:56:30 51°13.685 2°55.792 86.9 2.6 263 -999
2004-02-11 07:56:35 51°13.685 2°55.786 85.5 2.8 262 -999
2004-02-11 07:56:41 51°13.684 2°55.778 84.4 2.9 261 -999
2004-02-11 07:56:46 51°13.684 2°55.772 83.4 2.8 261 -999
2004-02-11 07:56:51 51°13.683 2°55.767 82.5 2.5 262 -999
2004-02-11 07:56:56 51°13.683 2°55.764 80.7 1.5 262 -999
2004-02-11 07:57:01 51°13.683 2°55.763 76.9 0.8 267 -999
2004-02-11 07:57:05 51°13.683 2°55.764 71.3 0.3 16 5.1
2004-02-11 07:57:10 51°13.684 2°55.765 66 0.8 45 13.1
2004-02-11 07:57:15 51°13.686 2°55.768 58.4 1.3 46 13.3
2004-02-11 07:57:20 51°13.689 2°55.77 51.9 2 37 13.1
2004-02-11 07:57:25 51°13.692 2°55.773 43.7 2.6 30 13.3
2004-02-11 07:57:30 51°13.696 2°55.775 35.5 2.6 30 13.4
2004-02-11 07:57:35 51°13.7 2°55.777 27 3 18 5.8
2004-02-11 07:57:39 51°13.703 2°55.777 19.7 2.8 10 13.1
2004-02-11 07:57:45 51°13.706 2°55.778 15.3 1.8 8 12.6
2004-02-11 07:57:50 51°13.707 2°55.778 11.2 1.2   12.7
2004-02-11 07:57:55 51°13.708 2°55.778 6.5 0.7 358 12.8
2004-02-11 07:57:59 51°13.708 2°55.778 2.2 0.2 355 12.8
2004-02-11 07:58:05 51°13.707 2°55.778 0.3 0.7 176 12.7
2004-02-11 07:58:09 51°13.705 2°55.778 358.5 1.1 182 12.6
2004-02-11 07:58:15 51°13.703 2°55.778 356.9 1.2 179 -999
2004-02-11 07:58:21 51°13.702 2°55.778 356.1 1.1 179 -999
2004-02-11 07:58:26 51°13.702 2°55.778 354.4 0.1 225 -999
2004-02-11 07:58:31 51°13.703 2°55.776 350.5 0.7 324 -999
2004-02-11 07:58:35 51°13.705 2°55.775 342.5 1.8 332 -999
2004-02-11 07:58:41 51°13.708 2°55.771 336.6 2.1 330 -999
2004-02-11 07:58:46 51°13.711 2°55.768 330.4 2.3 321 -999
2004-02-11 07:58:50 51°13.713 2°55.765 326.9 2.3 321 13.3
2004-02-11 07:58:55 51°13.715 2°55.761 325.1 2.3 321 -999
2004-02-11 07:59:01 51°13.718 2°55.757 323.7 2.3 318 -999
2004-02-11 07:59:06 51°13.72 2°55.753 322.7 2.4 316 12.5
2004-02-11 07:59:11 51°13.722 2°55.749 322.2 2.4 316 -999
2004-02-11 07:59:15 51°13.725 2°55.746 322 2.7 317 11
2004-02-11 07:59:20 51°13.728 2°55.741 322.3 2.9 317 -999
2004-02-11 07:59:25 51°13.732 2°55.736 323.5 3.8 319 10
2004-02-11 07:59:30 51°13.736 2°55.73 324.3 4.1 319 9.7
2004-02-11 07:59:35 51°13.741 2°55.723 324.7 4.5 319 9.9
2004-02-11 07:59:41 51°13.748 2°55.714 325 4.8 320 9.6
2004-02-11 07:59:45 51°13.752 2°55.708 325.2 5.3 321 9.5
2004-02-11 07:59:50 51°13.758 2°55.7 326.4 5.6 321 9.5
2004-02-11 07:59:55 51°13.765 2°55.692 327.8 5.8 323 9.6
2004-02-11 07:59:59 51°13.77 2°55.686 329.5 6 324 9.5
2004-02-11 08:00:05 51°13.779 2°55.677 331.4 6.4 327 9.7
2004-02-11 08:00:10 51°13.787 2°55.669 333.5 6.5 328 9.6
2004-02-11 08:00:15 51°13.795 2°55.662 334.8 6.7 330 9.7
2004-02-11 08:00:19 51°13.802 2°55.656 336 6.8 331 9.9
2004-02-11 08:00:25 51°13.812 2°55.647 337 7.1 332 10.1
2004-02-11 08:00:30 51°13.822 2°55.639 337.8 7.2 332 10.2
2004-02-11 08:00:35 51°13.831 2°55.632 338.3 7.2 333 10.3
2004-02-11 08:00:39 51°13.838 2°55.626 338.3 7.4 332 10.1
2004-02-11 08:00:45 51°13.849 2°55.617 338.5 7.5 334 9.9
2004-02-11 08:00:50 51°13.859 2°55.61 339.3 7.6 334 9.4
2004-02-11 08:00:55 51°13.869 2°55.602 339.5 7.7 334 10.2
2004-02-11 08:00:59 51°13.876 2°55.596 339.8 7.7 334 9.5
2004-02-11 08:01:05 51°13.888 2°55.587 340.4 7.8 335 9.6
2004-02-11 08:01:09 51°13.896 2°55.582 340.7 7.9 335 9.5
2004-02-11 08:01:15 51°13.908 2°55.573 340.4 7.9 335 9.4
2004-02-11 08:01:20 51°13.918 2°55.566 340.4 8 335 9.7
2004-02-11 08:01:25 51°13.928 2°55.559 341.3 8 338 9.5
2004-02-11 08:01:29 51°13.936 2°55.553 342.5 8 337 9.4
2004-02-11 08:01:35 51°13.949 2°55.545 343.2 8.1 338 9.5
2004-02-11 08:01:39 51°13.957 2°55.54 343.6 8.1 338 9.5
2004-02-11 08:01:45 51°13.97 2°55.532 343.6 8.2 338 9.4
2004-02-11 08:01:50 51°13.981 2°55.525 343.6 8.3 338 9.5
2004-02-11 08:01:55 51°13.992 2°55.518 344 8.3 339 9.3
2004-02-11 08:01:59 51°14 2°55.513 344.5 8.4 339 9.3
2004-02-11 08:02:05 51°14.013 2°55.505 345 8.5 339 9.1
2004-02-11 08:02:10 51°14.025 2°55.498 345.2 8.7 339 8.9
2004-02-11 08:02:15 51°14.036 2°55.49 344.2 8.9 337 8.9
2004-02-11 08:02:19 51°14.046 2°55.484 344 9.1 338 8.9
2004-02-11 08:02:25 51°14.06 2°55.474 343.5 9.2 337 8.9
2004-02-11 08:02:30 51°14.072 2°55.466 342.7 9.4 337 8.8
2004-02-11 08:02:35 51°14.084 2°55.458 342.7 9.5 336 8.8
2004-02-11 08:02:39 51°14.094 2°55.451 342.3 9.5 336 8.8
2004-02-11 08:02:45 51°14.108 2°55.44 341.8 9.7 335 8.9
2004-02-11 08:02:50 51°14.12 2°55.431 341.1 9.7 335 8.8
2004-02-11 08:02:55 51°14.132 2°55.421 339.9 9.7 334 8.9
2004-02-11 08:02:59 51°14.142 2°55.413 338.4 9.8 332 9.4
2004-02-11 08:03:05 51°14.156 2°55.399 337 10 329 9.2
2004-02-11 08:03:10 51°14.168 2°55.387 335.5 10.2 329 9.6
2004-02-11 08:03:15 51°14.181 2°55.375 334.4 10.3 328 10
2004-02-11 08:03:21 51°14.195 2°55.359 333.4 10.4 327 10.1
2004-02-11 08:03:25 51°14.204 2°55.347 330.9 10.6 323 9.5
2004-02-11 08:03:29 51°14.213 2°55.335 327.5 10.8 320 9.5
2004-02-11 08:03:35 51°14.227 2°55.316 325.2 10.8 320 9.6
2004-02-11 08:03:39 51°14.236 2°55.303 324 10.9 318 9.6
2004-02-11 08:03:45 51°14.25 2°55.283 323.6 11 317 9.5
2004-02-11 08:03:50 51°14.26 2°55.265 322.3 11 315 9.7
2004-02-11 08:03:55 51°14.271 2°55.247 319.7 11.1 312 9.6
2004-02-11 08:03:59 51°14.278 2°55.232 317.1 11.2 311 9.6
2004-02-11 08:04:05 51°14.29 2°55.209 316 11.2 309 9.6
2004-02-11 08:04:10 51°14.3 2°55.189 315 11.2 309 9.6
2004-02-11 08:04:15 51°14.309 2°55.169 314.3 11.3 308 9.6
2004-02-11 08:04:19 51°14.317 2°55.153 313.5 11.3 307 9.7
2004-02-11 08:04:25 51°14.328 2°55.128 312.6 11.4 307 9.7
2004-02-11 08:04:30 51°14.338 2°55.108 312.1 11.7 307 9.8
2004-02-11 08:04:35 51°14.348 2°55.088 313.1 11.8 307 9.6
2004-02-11 08:04:39 51°14.356 2°55.071 314.6 11.8 308 9.7
2004-02-11 08:04:45 51°14.368 2°55.047 315.3 11.8 309 9.8
2004-02-11 08:04:50 51°14.379 2°55.026 315.7 11.9 309 10.1
2004-02-11 08:04:55 51°14.389 2°55.005 316.2 12 309 10.2
2004-02-11 08:05:00 51°14.399 2°54.983 315.7 12 308 10.1
2004-02-11 08:05:05 51°14.408 2°54.961 313.7 12.1 306 10
2004-02-11 08:05:10 51°14.417 2°54.937 311.5 12.3 301 10.2
2004-02-11 08:05:15 51°14.424 2°54.913 308.9 12.4 298 10.3
2004-02-11 08:05:19 51°14.431 2°54.893 307.1 12.5 297 10.4
2004-02-11 08:05:25 51°14.44 2°54.863 307.1 12.5 297 10.4
2004-02-11 08:05:30 51°14.448 2°54.84 308.4 12.3 299 10.4
2004-02-11 08:05:35 51°14.457 2°54.818 311.2 11.8 301 10.2
2004-02-11 08:05:39 51°14.464 2°54.801 312.8 11.3 302 10.2
2004-02-11 08:05:45 51°14.474 2°54.778 315 10.9 304 10.2
2004-02-11 08:05:50 51°14.482 2°54.759 316.2 10.3 305 10.3
2004-02-11 08:05:55 51°14.49 2°54.741 317 10.2 305 10.4
2004-02-11 08:06:00 51°14.497 2°54.724 317.1 9.6 305 10.5
2004-02-11 08:06:05 51°14.504 2°54.707 317.5 9.5 305 10.6
2004-02-11 08:06:10 51°14.511 2°54.691 317.5 9 305 10.3
2004-02-11 08:06:15 51°14.518 2°54.675 317.4 8.9 304 10.5
2004-02-11 08:06:20 51°14.525 2°54.659 317.1 8.7 304 10.7
2004-02-11 08:06:25 51°14.532 2°54.643 316.6 8.6 303 10.5
2004-02-11 08:06:30 51°14.538 2°54.627 316.1 8.5 302 10.3
2004-02-11 08:06:35 51°14.544 2°54.612 315.6 8.3 302 9.9
2004-02-11 08:06:39 51°14.549 2°54.599 315 8.3 301 9.8
2004-02-11 08:06:45 51°14.556 2°54.581 314.2 8.1 300 9.9
2004-02-11 08:06:50 51°14.561 2°54.566 313.4 7.9 299 9.9
2004-02-11 08:06:55 51°14.566 2°54.55 312.7 7.9 299 9.8
2004-02-11 08:06:59 51°14.57 2°54.538 312.5 7.9 299 9.8
2004-02-11 08:07:05 51°14.577 2°54.52 312.6 7.8 300 9.8
2004-02-11 08:07:10 51°14.583 2°54.505 312.9 7.8 300 9.6
2004-02-11 08:07:15 51°14.589 2°54.488 313.7 8.6 301 9.9
2004-02-11 08:07:19 51°14.595 2°54.474 313.7 9.1 302 9.9
2004-02-11 08:07:25 51°14.604 2°54.452 313.9 9.8 302 9.8
2004-02-11 08:07:30 51°14.612 2°54.431 313.4 10.6 302 9.8
2004-02-11 08:07:35 51°14.62 2°54.41 313 11.2 302 9.8
2004-02-11 08:07:39 51°14.627 2°54.392 312.9 11.9 303 9.8
2004-02-11 08:07:45 51°14.638 2°54.365 312.9 12 303 9.7
2004-02-11 08:07:50 51°14.648 2°54.341 312.9 12.7 303 9.8
2004-02-11 08:07:55 51°14.658 2°54.317 313.1 12.8 304 9.8
2004-02-11 08:07:59 51°14.666 2°54.298 313.3 13 303 9.9
2004-02-11 08:08:05 51°14.678 2°54.268 313.2 13.2 303 9.8
2004-02-11 08:08:10 51°14.688 2°54.243 312.9 13.5 302 9.9
2004-02-11 08:08:15 51°14.697 2°54.218 312 13.5 302 9.6
2004-02-11 08:08:19 51°14.705 2°54.197 310.9 13.6 301 9.7
2004-02-11 08:08:25 51°14.717 2°54.166 310.3 13.6 300 9.5
2004-02-11 08:08:30 51°14.726 2°54.139 309.7 13.6 299 9.6
2004-02-11 08:08:35 51°14.735 2°54.113 309.4 13.7 300 9.5
2004-02-11 08:08:39 51°14.743 2°54.092 309.8 13.8 300 9.6
2004-02-11 08:08:45 51°14.754 2°54.061 309.9 13.7 300 9.2
2004-02-11 08:08:50 51°14.764 2°54.035 310.2 13.7 300 9.2
2004-02-11 08:08:55 51°14.774 2°54.009 310.2 13.7 300 9.3
2004-02-11 08:09:01 51°14.785 2°53.978 310.3 13.7 301 9.3
2004-02-11 08:09:05 51°14.793 2°53.957 310.6 13.7 301 9.2
2004-02-11 08:09:10 51°14.803 2°53.931 310.5 13.8 300 9.1
2004-02-11 08:09:15 51°14.813 2°53.905 310.8 13.8 300 9.2
2004-02-11 08:09:19 51°14.821 2°53.884 310.8 13.7 302 9.2
2004-02-11 08:09:25 51°14.833 2°53.853 310.7 13.7 302 9
2004-02-11 08:09:29 51°14.841 2°53.832 310.8 13.8 301 9.2
2004-02-11 08:09:35 51°14.853 2°53.802 310.6 13.8 302 9.2
2004-02-11 08:09:40 51°14.863 2°53.775 310.9 13.8 302 9.2
2004-02-11 08:09:45 51°14.873 2°53.749 310.9 13.8 302 8.9
2004-02-11 08:09:50 51°14.883 2°53.723 310.6 13.8 301 9.1
2004-02-11 08:09:55 51°14.893 2°53.697 310.6 13.7 302 9.3
2004-02-11 08:09:59 51°14.901 2°53.676 310.9 13.7 301 9.2
2004-02-11 08:10:05 51°14.913 2°53.645 310.9 13.8 301 9.2
2004-02-11 08:10:09 51°14.921 2°53.625 310.9 13.8 302 9.2
2004-02-11 08:10:15 51°14.933 2°53.593 311 13.8 302 9.2
2004-02-11 08:10:19 51°14.941 2°53.572 310.7 13.9 302 9.4
2004-02-11 08:10:25 51°14.953 2°53.541 310.9 13.9 302 9.6
2004-02-11 08:10:30 51°14.963 2°53.515 311 13.8 301 9.5
2004-02-11 08:10:35 51°14.972 2°53.489 309.9 13.8 300 9.2
2004-02-11 08:10:39 51°14.98 2°53.468 310.3 13.8 302 9.3
2004-02-11 08:10:45 51°14.992 2°53.436 310.7 13.8 301 9.2
2004-02-11 08:10:49 51°15 2°53.415 310.3 13.8 301 9.2
2004-02-11 08:10:55 51°15.012 2°53.384 310.7 13.8 302 9.3
2004-02-11 08:10:59 51°15.021 2°53.364 311 13.8 302 9.2
2004-02-11 08:11:05 51°15.032 2°53.333 311.2 13.7 302 9.2
2004-02-11 08:11:10 51°15.043 2°53.306 311.3 13.8 302 9.3
2004-02-11 08:11:15 51°15.053 2°53.28 311.2 13.8 302 9.7
2004-02-11 08:11:19 51°15.061 2°53.259 310.5 13.8 301 9.5
2004-02-11 08:11:25 51°15.072 2°53.227 309.3 13.9 300 9.3
2004-02-11 08:11:30 51°15.081 2°53.2 308.4 14 299 9.3
2004-02-11 08:11:35 51°15.09 2°53.172 307.8 13.9 298 9.5
2004-02-11 08:11:39 51°15.098 2°53.151 307.5 13.9 298 9.4
2004-02-11 08:11:45 51°15.108 2°53.118 307.2 14.1 298 9.6
2004-02-11 08:11:50 51°15.117 2°53.09 307.4 14 298 9.9
2004-02-11 08:11:55 51°15.126 2°53.063 307.1 13.9 297 9.8
2004-02-11 08:11:59 51°15.133 2°53.04 306.4 14 297 9.5
2004-02-11 08:12:05 51°15.143 2°53.007 305.6 14.1 296 9.8
2004-02-11 08:12:09 51°15.15 2°52.985 305.1 14.1 295 9.7
2004-02-11 08:12:15 51°15.16 2°52.951 304.8 14.1 295 9.7
2004-02-11 08:12:19 51°15.167 2°52.929 304.3 14.1 295 9.7
2004-02-11 08:12:25 51°15.177 2°52.895 304.1 14.1 295 9.8
2004-02-11 08:12:30 51°15.185 2°52.866 304.3 14.1 295 9.9
2004-02-11 08:12:35 51°15.194 2°52.838 304.7 14.1 296 10.1
2004-02-11 08:12:39 51°15.2 2°52.815 304.8 14.2 295 10.2
2004-02-11 08:12:45 51°15.21 2°52.782 305 14.2 296 10.2
2004-02-11 08:12:50 51°15.219 2°52.753 305.2 14.2 296 10.4
2004-02-11 08:12:55 51°15.227 2°52.725 305.1 14.2 295 10.3
2004-02-11 08:12:59 51°15.234 2°52.702 304.6 14.2 295 10.4
2004-02-11 08:13:05 51°15.244 2°52.668 304.8 14.1 295 10.4
2004-02-11 08:13:10 51°15.253 2°52.64 304.7 14.1 296 10.5
2004-02-11 08:13:15 51°15.261 2°52.612 304.8 14 295 10.5
2004-02-11 08:13:19 51°15.268 2°52.59 304.6 14 295 10.7
2004-02-11 08:13:25 51°15.278 2°52.556 305.5 14.1 296 10.6
2004-02-11 08:13:30 51°15.286 2°52.528 305.5 14 296 10.7
2004-02-11 08:13:35 51°15.295 2°52.5 305 14.1 296 10.8
2004-02-11 08:13:39 51°15.302 2°52.477 304.9 14.1 295 10.9
2004-02-11 08:13:45 51°15.312 2°52.444 305.2 14.1 296 10.9
2004-02-11 08:13:49 51°15.318 2°52.421 305 14.2 295 11.1
2004-02-11 08:13:55 51°15.328 2°52.388 305.3 14.2 295 10.7
2004-02-11 08:13:59 51°15.335 2°52.365 304.9 14 295 11
2004-02-11 08:14:05 51°15.345 2°52.332 305.1 14 296 11
2004-02-11 08:14:10 51°15.354 2°52.304 304.9 14.1 295 11
2004-02-11 08:14:15 51°15.362 2°52.276 305.1 14 296 11.1
2004-02-11 08:14:19 51°15.368 2°52.253 304.8 13.9 294 11.2
2004-02-11 08:14:25 51°15.378 2°52.22 304.1 14 294 11.3
2004-02-11 08:14:30 51°15.384 2°52.19 302.6 13.9 292 11.2
2004-02-11 08:14:35 51°15.391 2°52.161 300.2 14.1 291 11.2
2004-02-11 08:14:39 51°15.395 2°52.137 298.5 14 289 11.3
2004-02-11 08:14:45 51°15.403 2°52.102 296.9 14.1 288 11.2
2004-02-11 08:14:50 51°15.408 2°52.072 296.7 14.1 287 11.5
2004-02-11 08:14:55 51°15.414 2°52.042 296.2 14.1 287 11.4
2004-02-11 08:14:59 51°15.419 2°52.018 296.6 14.1 287 11.4
2004-02-11 08:15:05 51°15.425 2°51.982 295.3 14.1 286 11.6
2004-02-11 08:15:09 51°15.429 2°51.958 294.6 14.1 285 11.7
2004-02-11 08:15:15 51°15.435 2°51.922 294.6 14.1 285 11.6
2004-02-11 08:15:19 51°15.439 2°51.897 293.4 14.3 284 11.7
2004-02-11 08:15:25 51°15.444 2°51.861 292.1 14.2 285 11.8
2004-02-11 08:15:30 51°15.449 2°51.83 291.7 14.2 283 11.9
2004-02-11 08:15:35 51°15.452 2°51.798 289.9 14.3 281 11.8
2004-02-11 08:15:40 51°15.455 2°51.767 288.1 14.3 279 11.9
2004-02-11 08:15:45 51°15.457 2°51.735 286.6 14.4 279 11.8
2004-02-11 08:15:50 51°15.46 2°51.704 285.4 14.4 277 12
2004-02-11 08:15:55 51°15.462 2°51.672 284.9 14.5 277 11.8
2004-02-11 08:15:59 51°15.464 2°51.647 284.1 14.5 276 11.8
2004-02-11 08:16:05 51°15.466 2°51.609 283.7 14.5 276 12
2004-02-11 08:16:10 51°15.468 2°51.577 284 14.5 276 12
2004-02-11 08:16:15 51°15.47 2°51.545 284.1 14.4 277 12
2004-02-11 08:16:20 51°15.472 2°51.513 283.7 14.4 276 11.9
2004-02-11 08:16:25 51°15.475 2°51.482 284.5 14.4 277 12.2
2004-02-11 08:16:30 51°15.477 2°51.45 284.2 14.5 275 12.1
2004-02-11 08:16:35 51°15.479 2°51.418 284.1 14.4 276 12.2
2004-02-11 08:16:40 51°15.481 2°51.387 283.4 14.4 275 12.1
2004-02-11 08:16:45 51°15.483 2°51.355 283.2 14.4 276 12.2
2004-02-11 08:16:50 51°15.485 2°51.323 283.7 14.4 276 12.3
2004-02-11 08:16:55 51°15.488 2°51.292 284.3 14.4 277 12.2
2004-02-11 08:16:59 51°15.489 2°51.266 284.5 14.3 276 12.4
2004-02-11 08:17:05 51°15.492 2°51.229 283.8 14.4 276 12.1
2004-02-11 08:17:10 51°15.494 2°51.197 283.8 14.4 276 12.2
2004-02-11 08:17:15 51°15.496 2°51.165 284.4 14.3 276 12.2
2004-02-11 08:17:19 51°15.498 2°51.14 284.7 14.3 277 12.2
2004-02-11 08:17:25 51°15.501 2°51.102 284.6 14.4 278 12.3
2004-02-11 08:17:30 51°15.504 2°51.071 285.2 14.3 277 12.3
2004-02-11 08:17:35 51°15.506 2°51.039 285.4 14.3 277 12.4
2004-02-11 08:17:39 51°15.508 2°51.014 284.5 14.4 276 12.4
2004-02-11 08:17:45 51°15.51 2°50.976 284.2 14.4 276 12.4
2004-02-11 08:17:49 51°15.512 2°50.951 284.1 14.4 276 12.5
2004-02-11 08:17:55 51°15.515 2°50.913 284.1 14.4 277 12.5
2004-02-11 08:18:00 51°15.518 2°50.881 284.5 14.5 277 12.4
2004-02-11 08:18:05 51°15.52 2°50.849 284.3 14.4 277 12.5
2004-02-11 08:18:10 51°15.522 2°50.818 284.7 14.4 277 12.3
2004-02-11 08:18:15 51°15.525 2°50.786 284.6 14.3 277 12.5
2004-02-11 08:18:19 51°15.527 2°50.761 285.1 14.2 277 12.5
2004-02-11 08:18:25 51°15.53 2°50.723 284.5 14.4 276 12.4
2004-02-11 08:18:30 51°15.532 2°50.692 285.1 14.3 278 12.2
2004-02-11 08:18:35 51°15.534 2°50.66 284.7 14.3 277 12.2
2004-02-11 08:18:39 51°15.537 2°50.635 285.2 14.3 279 12.2
2004-02-11 08:18:45 51°15.54 2°50.597 285.2 14.3 278 12.2
2004-02-11 08:18:50 51°15.542 2°50.565 284.9 14.4 278 12.2
2004-02-11 08:18:55 51°15.545 2°50.534 285.3 14.3 277 12.4
2004-02-11 08:18:59 51°15.546 2°50.509 284.3 14.4 276 12.4
2004-02-11 08:19:05 51°15.549 2°50.471 284.4 14.4 277 12.5
2004-02-11 08:19:09 51°15.551 2°50.446 285.2 14.3 277 12.4
2004-02-11 08:19:15 51°15.555 2°50.408 284.7 14.4 276 12.4
2004-02-11 08:19:19 51°15.556 2°50.382 285.2 14.4 278 12.5
2004-02-11 08:19:25 51°15.56 2°50.344 284.9 14.4 278 12.4
2004-02-11 08:19:30 51°15.562 2°50.313 284.8 14.4 277 12.4
2004-02-11 08:19:35 51°15.565 2°50.281 285.2 14.4 279 12.3
2004-02-11 08:19:39 51°15.567 2°50.256 284.9 14.4 276 12.3
2004-02-11 08:19:45 51°15.57 2°50.218 285.2 14.4 278 12.3
2004-02-11 08:19:50 51°15.573 2°50.186 285.1 14.4 277 12.3
2004-02-11 08:19:55 51°15.575 2°50.154 285.2 14.5 277 12.5
2004-02-11 08:20:00 51°15.578 2°50.123 285.1 14.4 277 12.3
2004-02-11 08:20:05 51°15.58 2°50.091 285 14.5 277 12.4
2004-02-11 08:20:10 51°15.583 2°50.059 284.5 14.5 277 12.2
2004-02-11 08:20:15 51°15.585 2°50.028 284.8 14.4 276 12.3
2004-02-11 08:20:20 51°15.587 2°49.996 284.8 14.4 277 12.2
2004-02-11 08:20:25 51°15.59 2°49.964 283.6 14.4 276 12.3
2004-02-11 08:20:30 51°15.591 2°49.932 283 14.5 275 12.5
2004-02-11 08:20:35 51°15.593 2°49.901 282.8 14.4 276 12.5
2004-02-11 08:20:39 51°15.594 2°49.875 282.5 14.4 275 12.5
2004-02-11 08:20:45 51°15.596 2°49.837 282 14.4 274 12.6
2004-02-11 08:20:50 51°15.597 2°49.805 281.3 14.5 274 12.4
2004-02-11 08:20:55 51°15.599 2°49.773 281.9 14.5 275 12.3
2004-02-11 08:20:59 51°15.6 2°49.747 281.6 14.5 274 12.2
2004-02-11 08:21:05 51°15.602 2°49.709 281.6 14.4 274 12.3
2004-02-11 08:21:10 51°15.604 2°49.677 281.9 14.4 275 12.3
2004-02-11 08:21:15 51°15.605 2°49.645 281.9 14.4 274 12.3
2004-02-11 08:21:20 51°15.607 2°49.614 281.8 14.3 275 12.3
2004-02-11 08:21:25 51°15.608 2°49.582 281.4 14.5 274 12
2004-02-11 08:21:30 51°15.61 2°49.55 282 14.4 276 12
2004-02-11 08:21:35 51°15.612 2°49.518 282.1 14.3 274 12
2004-02-11 08:21:40 51°15.613 2°49.487 281.9 14.4 274 11.9
2004-02-11 08:21:45 51°15.615 2°49.455 281.9 14.3 275 11.7
2004-02-11 08:21:50 51°15.616 2°49.424 281.6 14.4 274 11.6
2004-02-11 08:21:55 51°15.618 2°49.392 281 14.4 273 11.2
2004-02-11 08:21:59 51°15.619 2°49.367 281 14.4 275 11
2004-02-11 08:22:04 51°15.621 2°49.335 281.9 14.3 274 11
2004-02-11 08:22:10 51°15.623 2°49.298 281.9 14.2 275 10.9
2004-02-11 08:22:15 51°15.624 2°49.266 282 14.2 275 10.8
2004-02-11 08:22:19 51°15.626 2°49.241 282.3 14.3 276 10.8
2004-02-11 08:22:25 51°15.627 2°49.203 282 14.3 274 10.6
2004-02-11 08:22:30 51°15.629 2°49.172 281.6 14.3 275 10.4
2004-02-11 08:22:35 51°15.631 2°49.14 281.6 14.2 275 10.4
2004-02-11 08:22:40 51°15.633 2°49.109 282.5 14.1 276 10.3
2004-02-11 08:22:45 51°15.634 2°49.078 282 14.3 275 10.2
2004-02-11 08:22:50 51°15.636 2°49.046 282 14.3 275 10.1
2004-02-11 08:22:55 51°15.638 2°49.015 282.3 14.4 275 9.9
2004-02-11 08:22:59 51°15.64 2°48.989 282.2 14.3 276 9.8
2004-02-11 08:23:05 51°15.642 2°48.952 282.3 14.3 275 9.9
2004-02-11 08:23:09 51°15.643 2°48.927 281.4 14.3 275 9.8
2004-02-11 08:23:15 51°15.646 2°48.888 282 14.3 276 9.8
2004-02-11 08:23:21 51°15.648 2°48.851 282.5 14.4 275 9.8
2004-02-11 08:23:25 51°15.65 2°48.826 283 14.3 276 9.7
2004-02-11 08:23:30 51°15.651 2°48.794 281.7 14.3 274 9.7
2004-02-11 08:23:35 51°15.653 2°48.763 282 14.4 276 9.7
2004-02-11 08:23:39 51°15.654 2°48.737 281.8 14.5 275 9.9
2004-02-11 08:23:45 51°15.657 2°48.699 282.5 14.3 277 9.8
2004-02-11 08:23:50 51°15.659 2°48.667 282.3 14.4 275 10
2004-02-11 08:23:55 51°15.661 2°48.636 282.3 14.5 276 10
2004-02-11 08:23:59 51°15.662 2°48.611 282.6 14.4 276 10
2004-02-11 08:24:05 51°15.665 2°48.572 281.6 14.5 276 10.1
2004-02-11 08:24:10 51°15.666 2°48.54 281.6 14.5 275 10.2
2004-02-11 08:24:15 51°15.668 2°48.509 282.3 14.5 276 10.2
2004-02-11 08:24:19 51°15.67 2°48.483 282.6 14.4 276 10.3
2004-02-11 08:24:25 51°15.672 2°48.445 282.4 14.5 275 10.3
2004-02-11 08:24:30 51°15.675 2°48.413 283.1 14.4 277 10.3
2004-02-11 08:24:35 51°15.677 2°48.381 283 14.4 276 10.5
2004-02-11 08:24:40 51°15.678 2°48.349 282.8 14.5 276 10.5
2004-02-11 08:24:45 51°15.681 2°48.318 282.7 14.5 276 10.7
2004-02-11 08:24:50 51°15.682 2°48.286 282.9 14.6 275 10.7
2004-02-11 08:24:55 51°15.684 2°48.254 282.9 14.5 277 10.8
2004-02-11 08:24:59 51°15.686 2°48.229 282.3 14.5 275 10.7
2004-02-11 08:25:05 51°15.687 2°48.19 281.6 14.5 275 10.8
2004-02-11 08:25:10 51°15.689 2°48.158 281.7 14.6 276 11
2004-02-11 08:25:15 51°15.691 2°48.126 281.6 14.6 275 11.2
2004-02-11 08:25:19 51°15.693 2°48.101 281.6 14.6 275 11.2
2004-02-11 08:25:25 51°15.695 2°48.062 282.3 14.5 275 11.5
2004-02-11 08:25:29 51°15.696 2°48.037 282.3 14.5 274 11.8
2004-02-11 08:25:35 51°15.699 2°47.998 282.2 14.5 274 11.8
2004-02-11 08:25:40 51°15.7 2°47.966 282.6 14.6 276 11.8
2004-02-11 08:25:45 51°15.702 2°47.934 282.3 14.6 276 12
2004-02-11 08:25:50 51°15.704 2°47.902 282.3 14.5 275 12.2
2004-02-11 08:25:55 51°15.706 2°47.87 282.1 14.4 275 12.2
2004-02-11 08:25:59 51°15.707 2°47.844 282.2 14.7 276 12.5
2004-02-11 08:26:05 51°15.71 2°47.805 282.1 14.6 275 12.6
2004-02-11 08:26:10 51°15.712 2°47.774 282.4 14.7 275 12.6
2004-02-11 08:26:15 51°15.713 2°47.741 282.4 14.5 275 12.9
2004-02-11 08:26:19 51°15.715 2°47.716 282.3 14.6 275 13
2004-02-11 08:26:25 51°15.717 2°47.677 282.3 14.7 276 13.3
2004-02-11 08:26:30 51°15.719 2°47.644 282.3 14.7 275 13.4
2004-02-11 08:26:35 51°15.721 2°47.612 282.5 14.6 276 13.5
2004-02-11 08:26:39 51°15.722 2°47.587 282.6 14.7 274 13.5
2004-02-11 08:26:45 51°15.724 2°47.548 282.6 14.6 276 13.5
2004-02-11 08:26:50 51°15.726 2°47.516 282 14.5 275 13.5
2004-02-11 08:26:55 51°15.728 2°47.484 281.7 14.7 275 13.8
2004-02-11 08:26:59 51°15.73 2°47.458 282.8 14.6 276 13.9
2004-02-11 08:27:05 51°15.732 2°47.42 282.8 14.5 274 14
2004-02-11 08:27:10 51°15.734 2°47.388 282.7 14.6 275 14.3
2004-02-11 08:27:15 51°15.735 2°47.356 282.4 14.7 275 14
2004-02-11 08:27:19 51°15.737 2°47.33 282.3 14.6 276 14.3
2004-02-11 08:27:25 51°15.738 2°47.291 282.1 14.6 274 14.3
2004-02-11 08:27:30 51°15.741 2°47.259 282.8 14.5 276 14.2
2004-02-11 08:27:35 51°15.742 2°47.227 282.1 14.6 273 14.6
2004-02-11 08:27:41 51°15.744 2°47.189 282.3 14.6 273 14.6
2004-02-11 08:27:45 51°15.746 2°47.163 282.3 14.6 275 14.6
2004-02-11 08:27:50 51°15.747 2°47.131 282.3 14.5 276 14.8
2004-02-11 08:27:55 51°15.749 2°47.099 280.8 14.6 272 14.8
2004-02-11 08:27:59 51°15.75 2°47.073 282.3 14.5 278 15.3
2004-02-11 08:28:05 51°15.751 2°47.035 280.2 14.4 274 15.1
2004-02-11 08:28:10 51°15.751 2°47.002 280.7 14.4 272 15.2
2004-02-11 08:28:15 51°15.752 2°46.97 279.7 14.5 273 15.1
2004-02-11 08:28:19 51°15.754 2°46.945 280.4 14.5 274 15.3
2004-02-11 08:28:25 51°15.754 2°46.907 280.5 14.3 271 15.4
2004-02-11 08:28:30 51°15.756 2°46.875 279.7 14.4 274 15.7
2004-02-11 08:28:35 51°15.756 2°46.844 279.7 14.5 271 15.7
2004-02-11 08:28:40 51°15.758 2°46.812 279.9 14.5 274 15.5
2004-02-11 08:28:45 51°15.758 2°46.78 280 14.4 272 15.9
2004-02-11 08:28:50 51°15.759 2°46.748 279.9 14.3 271 16.1
2004-02-11 08:28:55 51°15.76 2°46.716 279.5 14.4 272 16.1
2004-02-11 08:28:59 51°15.76 2°46.691 279.7 14.5 274 16
2004-02-11 08:29:05 51°15.762 2°46.652 280.3 14.4 274 16.1
2004-02-11 08:29:10 51°15.763 2°46.62 280.3 14.4 273 16.1
2004-02-11 08:29:15 51°15.764 2°46.589 279.9 14.5 272 16.1
2004-02-11 08:29:21 51°15.765 2°46.55 280.1 14.4 273 16.2
2004-02-11 08:29:25 51°15.766 2°46.525 279.4 14.5 272 16.4
2004-02-11 08:29:30 51°15.767 2°46.493 280.1 14.5 274 16.3
2004-02-11 08:29:35 51°15.768 2°46.461 279.8 14.5 273 16.2
2004-02-11 08:29:39 51°15.769 2°46.435 280 14.5 274 16.3
2004-02-11 08:29:45 51°15.77 2°46.397 279.4 14.4 274 16.1
2004-02-11 08:29:50 51°15.771 2°46.365 279.9 14.4 274 16.2
2004-02-11 08:29:55 51°15.772 2°46.333 279.4 14.5 271 15.9
2004-02-11 08:30:00 51°15.773 2°46.301 280.3 14.6 274 15.9
2004-02-11 08:30:05 51°15.774 2°46.269 279.9 14.5 273 16
2004-02-11 08:30:10 51°15.775 2°46.237 280.8 14.4 274 16.2
2004-02-11 08:30:15 51°15.776 2°46.205 279.5 14.6 271 16
2004-02-11 08:30:19 51°15.778 2°46.18 281.2 14.5 276 15.9
2004-02-11 08:30:25 51°15.779 2°46.141 279.8 14.5 274 16
2004-02-11 08:30:30 51°15.779 2°46.109 280.4 14.6 273 16
2004-02-11 08:30:35 51°15.78 2°46.077 280 14.6 273 15.8
2004-02-11 08:30:39 51°15.781 2°46.051 280.1 14.3 273 15.7
2004-02-11 08:30:45 51°15.782 2°46.013 280 14.6 273 15.7
2004-02-11 08:30:49 51°15.783 2°45.987 280.8 14.5 274 15.6
2004-02-11 08:30:55 51°15.784 2°45.949 279 14.6 270 15.5
2004-02-11 08:31:00 51°15.785 2°45.916 280.5 14.6 275 15.6
2004-02-11 08:31:05 51°15.786 2°45.885 280.4 14.3 273 15.5
2004-02-11 08:31:10 51°15.787 2°45.853 279.7 14.3 274 15.2
2004-02-11 08:31:15 51°15.788 2°45.82 279.5 14.7 271 15.3
2004-02-11 08:31:20 51°15.79 2°45.788 280.6 14.6 275 15.3
2004-02-11 08:31:25 51°15.79 2°45.756 280.3 14.4 271 14.9
2004-02-11 08:31:30 51°15.792 2°45.725 279.8 14.3 275 14.7
2004-02-11 08:31:35 51°15.792 2°45.692 280.2 14.3 275 14.6
2004-02-11 08:31:39 51°15.793 2°45.666 279.6 14.7 271 14.4
2004-02-11 08:31:45 51°15.794 2°45.628 280.3 14.5 272 14.3
2004-02-11 08:31:50 51°15.796 2°45.596 279.8 14.4 274 12.8
2004-02-11 08:31:55 51°15.797 2°45.565 280.7 14.3 274 12.6
2004-02-11 08:31:59 51°15.797 2°45.539 279.6 14.7 271 13
2004-02-11 08:32:05 51°15.8 2°45.5 280.9 14.4 276 13.5
2004-02-11 08:32:10 51°15.8 2°45.468 281.3 14.3 275 13.3
2004-02-11 08:32:15 51°15.803 2°45.437 280.1 14.5 274 12.5
2004-02-11 08:32:19 51°15.804 2°45.411 282.1 14.5 277 12.1
2004-02-11 08:32:25 51°15.806 2°45.372 281.5 14.6 272 12
2004-02-11 08:32:30 51°15.808 2°45.341 282.1 14.3 276 12.4
2004-02-11 08:32:35 51°15.81 2°45.31 282.7 14.3 276 12.4
2004-02-11 08:32:41 51°15.812 2°45.272 282.1 14.3 276 12.3
2004-02-11 08:32:45 51°15.814 2°45.246 282.5 14.3 275 11.8
2004-02-11 08:32:50 51°15.815 2°45.214 282.2 14.5 274 11.9
2004-02-11 08:32:55 51°15.818 2°45.183 282.3 14.5 277 12.1
2004-02-11 08:33:00 51°15.82 2°45.151 283.5 14.4 277 12.1
2004-02-11 08:33:05 51°15.822 2°45.12 282.7 14.4 276 11.9
2004-02-11 08:33:10 51°15.825 2°45.088 283 14.3 277 10.5
2004-02-11 08:33:15 51°15.827 2°45.057 283.3 14.3 276 9.8
2004-02-11 08:33:19 51°15.828 2°45.032 283 14.2 276 9.8
2004-02-11 08:33:25 51°15.831 2°44.995 282.8 14 275 10
2004-02-11 08:33:30 51°15.832 2°44.964 283 14.1 276 10.1
2004-02-11 08:33:35 51°15.834 2°44.932 282.3 14.2 276 10.7
2004-02-11 08:33:39 51°15.836 2°44.907 281.8 14.4 277 11.1
2004-02-11 08:33:45 51°15.839 2°44.869 283 14.3 276 11.2
2004-02-11 08:33:49 51°15.841 2°44.844 283.7 14.3 278 11.2
2004-02-11 08:33:55 51°15.846 2°44.807 285.2 14.4 279 10.9
2004-02-11 08:33:59 51°15.848 2°44.781 286.5 14.4 279 11.2
2004-02-11 08:34:05 51°15.853 2°44.744 287.7 14.5 281 11.3
2004-02-11 08:34:09 51°15.856 2°44.719 288.6 14.4 282 11.2
2004-02-11 08:34:15 51°15.861 2°44.681 289.3 14.3 282 11.4
2004-02-11 08:34:19 51°15.865 2°44.657 288.6 14.3 282 11.1
2004-02-11 08:34:25 51°15.87 2°44.62 289.4 14.3 283 11.2
2004-02-11 08:34:30 51°15.873 2°44.589 289.2 14.3 280 11.1
2004-02-11 08:34:34 51°15.877 2°44.564 288.1 14.4 282 11.2
2004-02-11 08:34:39 51°15.881 2°44.533 289.5 14.4 282 11
2004-02-11 08:34:45 51°15.885 2°44.495 288 14.2 282 10.9
2004-02-11 08:34:49 51°15.889 2°44.471 288.7 14.3 283 10.6
2004-02-11 08:34:55 51°15.894 2°44.434 289 14.2 282 10.7
2004-02-11 08:34:59 51°15.897 2°44.409 288.3 14.2 282 10.2
2004-02-11 08:35:05 51°15.902 2°44.373 288.1 14.2 283 10.7
2004-02-11 08:35:10 51°15.906 2°44.341 288.3 14.3 280 10.8
2004-02-11 08:35:15 51°15.911 2°44.31 288.1 14.4 283 10.6
2004-02-11 08:35:19 51°15.915 2°44.286 289.5 14.2 285 10.4
2004-02-11 08:35:25 51°15.923 2°44.251 293.1 14 291 10.7
2004-02-11 08:35:30 51°15.931 2°44.223 297.2 14 294 10.4
2004-02-11 08:35:35 51°15.939 2°44.195 300.7 14 294 10.3
2004-02-11 08:35:40 51°15.949 2°44.168 304 14 299 10.3
2004-02-11 08:35:45 51°15.959 2°44.142 306.6 13.9 305 10.4
2004-02-11 08:35:49 51°15.969 2°44.123 310 13.9 308 10.3
2004-02-11 08:35:55 51°15.984 2°44.095 315.8 13.9 310 10.3
2004-02-11 08:35:59 51°15.994 2°44.077 319.1 13.8 313 10.6
2004-02-11 08:36:05 51°16.011 2°44.051 321.6 13.8 314 10.5
2004-02-11 08:36:10 51°16.024 2°44.03 323.6 14 316 10.6
2004-02-11 08:36:15 51°16.039 2°44.009 324.8 13.9 316 10.5
2004-02-11 08:36:20 51°16.053 2°43.988 325.9 13.9 317 10.8
2004-02-11 08:36:25 51°16.067 2°43.968 326 13.8 318 11
2004-02-11 08:36:30 51°16.082 2°43.95 327 13.7 323 10.9
2004-02-11 08:36:35 51°16.098 2°43.933 330.9 13.8 326 10.9
2004-02-11 08:36:40 51°16.114 2°43.917 334.4 13.7 327 10.9
2004-02-11 08:36:45 51°16.131 2°43.903 339 13.5 333 11
2004-02-11 08:36:50 51°16.147 2°43.888 341 13.5 329 11.1
2004-02-11 08:36:55 51°16.163 2°43.873 339.7 13.5 330 11.2
2004-02-11 08:36:59 51°16.175 2°43.859 337.6 13.5 327 11.6
2004-02-11 08:37:05 51°16.194 2°43.84 336.7 13.6 327 11.6
2004-02-11 08:37:09 51°16.207 2°43.826 335.5 13.7 326 11.8
2004-02-11 08:37:15 51°16.226 2°43.806 335.1 13.7 326 12.2
2004-02-11 08:37:19 51°16.238 2°43.792 334.7 13.7 325 12.4
2004-02-11 08:37:25 51°16.257 2°43.772 334.4 13.7 325 12.6
2004-02-11 08:37:30 51°16.273 2°43.754 334.5 13.7 326 12.8
2004-02-11 08:37:35 51°16.289 2°43.737 334.5 13.7 326 12.9
2004-02-11 08:37:39 51°16.301 2°43.723 334.4 13.7 326 13.2
2004-02-11 08:37:45 51°16.321 2°43.703 334.9 13.8 326 13.2
2004-02-11 08:37:49 51°16.333 2°43.689 334.9 13.7 326 13.3
2004-02-11 08:37:55 51°16.352 2°43.669 334.6 13.7 327 13.2
2004-02-11 08:38:00 51°16.368 2°43.652 335.1 13.7 327 13.3
2004-02-11 08:38:05 51°16.384 2°43.635 334.7 13.7 326 13.3
2004-02-11 08:38:09 51°16.396 2°43.622 335.3 13.7 326 13.2
2004-02-11 08:38:15 51°16.415 2°43.601 334.6 13.6 325 13.3
2004-02-11 08:38:19 51°16.428 2°43.587 335 13.6 327 13.4
2004-02-11 08:38:25 51°16.447 2°43.567 335.1 13.7 326 13.9
2004-02-11 08:38:29 51°16.459 2°43.554 335.3 13.5 327 13.7
2004-02-11 08:38:35 51°16.478 2°43.534 335.6 13.6 326 13.8
2004-02-11 08:38:40 51°16.494 2°43.518 335.6 13.6 327 13.8
2004-02-11 08:38:45 51°16.51 2°43.502 335.8 13.7 327 13.5
2004-02-11 08:38:49 51°16.523 2°43.488 335.5 13.6 328 13.5
2004-02-11 08:38:55 51°16.541 2°43.47 336 13.5 328 12.9
2004-02-11 08:39:00 51°16.557 2°43.454 336.8 13.6 328 13.1
2004-02-11 08:39:05 51°16.573 2°43.439 337.7 13.4 329 12.9
2004-02-11 08:39:09 51°16.586 2°43.427 338.7 13.4 330 12.8
2004-02-11 08:39:15 51°16.605 2°43.409 338.3 13.4 329 12.8
2004-02-11 08:39:19 51°16.618 2°43.397 338.6 13.4 330 12.5
2004-02-11 08:39:25 51°16.637 2°43.38 339 13.6 330 12
2004-02-11 08:39:29 51°16.65 2°43.367 339.2 13.6 330 11.9
2004-02-11 08:39:35 51°16.669 2°43.35 339.1 13.5 330 12.2
2004-02-11 08:39:39 51°16.682 2°43.337 338.7 13.5 330 12.5
2004-02-11 08:39:45 51°16.702 2°43.319 338.7 13.5 329 12.3
2004-02-11 08:39:50 51°16.718 2°43.304 338.6 13.5 330 12.2
2004-02-11 08:39:55 51°16.734 2°43.289 339.5 13.3 331 11.8
2004-02-11 08:39:59 51°16.748 2°43.277 340 13.3 330 12.1
2004-02-11 08:40:05 51°16.767 2°43.26 340.7 13.4 331 12
2004-02-11 08:40:09 51°16.781 2°43.249 340.6 13.4 332 12
2004-02-11 08:40:15 51°16.8 2°43.232 341.1 13.5 332 11.8
2004-02-11 08:40:19 51°16.814 2°43.221 341.4 13.5 333 11.5
2004-02-11 08:40:25 51°16.834 2°43.204 341.6 13.3 332 11.3
2004-02-11 08:40:29 51°16.847 2°43.193 341.6 13.3 332 11
2004-02-11 08:40:35 51°16.866 2°43.176 341.8 13.4 331 11.2
2004-02-11 08:40:40 51°16.883 2°43.162 340.8 13.5 331 11.1
2004-02-11 08:40:45 51°16.899 2°43.148 341.3 13.6 331 11.4
2004-02-11 08:40:49 51°16.913 2°43.137 340.9 13.6 332 12.1
2004-02-11 08:40:55 51°16.932 2°43.119 340.8 13.5 330 12.4
2004-02-11 08:41:00 51°16.949 2°43.104 341.2 13.4 331 12.7
2004-02-11 08:41:05 51°16.965 2°43.089 341 13.5 331 12.8
2004-02-11 08:41:09 51°16.979 2°43.078 340.8 13.5 331 12.3
2004-02-11 08:41:15 51°16.998 2°43.061 340.9 13.5 331 12.4
2004-02-11 08:41:19 51°17.011 2°43.05 341.5 13.5 332 12
2004-02-11 08:41:25 51°17.031 2°43.033 341.1 13.5 332 11.9
2004-02-11 08:41:30 51°17.048 2°43.02 342.4 13.6 334 11.9
2004-02-11 08:41:35 51°17.065 2°43.007 343.3 13.5 334 11.9
2004-02-11 08:41:39 51°17.078 2°42.997 343.3 13.5 335 11.3
2004-02-11 08:41:45 51°17.098 2°42.982 343.8 13.5 334 10.5
2004-02-11 08:41:50 51°17.115 2°42.969 343.4 13.4 334 10.1
2004-02-11 08:41:55 51°17.131 2°42.956 343.3 13.5 334 9.6
2004-02-11 08:41:59 51°17.145 2°42.945 343.4 13.5 334 9.2
2004-02-11 08:42:05 51°17.165 2°42.929 343.7 13.5 333 9
2004-02-11 08:42:10 51°17.181 2°42.915 343.5 13.5 332 9.1
2004-02-11 08:42:15 51°17.198 2°42.901 343.4 13.5 332 8.9
2004-02-11 08:42:19 51°17.211 2°42.89 342.8 13.5 332 8.3
2004-02-11 08:42:25 51°17.231 2°42.873 343 13.5 333 7.9
2004-02-11 08:42:30 51°17.248 2°42.859 343.2 13.4 332 7.5
2004-02-11 08:42:35 51°17.264 2°42.845 342.8 13.4 331 7.1
2004-02-11 08:42:40 51°17.281 2°42.831 342.9 13.4 331 8.1
2004-02-11 08:42:45 51°17.298 2°42.817 343 13.6 332 9.1
2004-02-11 08:42:50 51°17.315 2°42.803 343.5 13.9 334 9.7
2004-02-11 08:42:55 51°17.332 2°42.789 343.8 14.1 334 10.1
2004-02-11 08:42:59 51°17.347 2°42.778 343.5 14.4 334 10.3
2004-02-11 08:43:05 51°17.368 2°42.761 343.5 14.4 333 10.5
2004-02-11 08:43:10 51°17.386 2°42.747 343.8 14.3 334 10.6
2004-02-11 08:43:15 51°17.404 2°42.733 343.6 14.4 334 11.2
2004-02-11 08:43:19 51°17.418 2°42.722 343.9 14.3 334 11.7
2004-02-11 08:43:25 51°17.439 2°42.705 344.1 14.3 333 12.3
2004-02-11 08:43:30 51°17.457 2°42.691 343.3 14.3 334 13.1
2004-02-11 08:43:35 51°17.475 2°42.678 343.7 14.4 335 14.9
2004-02-11 08:43:39 51°17.49 2°42.667 344.4 14.2 335 16.9
2004-02-11 08:43:45 51°17.511 2°42.652 345.4 13.9 336 18.6
2004-02-11 08:43:50 51°17.528 2°42.64 346 13.7 336 19.8
2004-02-11 08:43:55 51°17.546 2°42.628 346.5 13.8 336 20.1
2004-02-11 08:43:59 51°17.56 2°42.619 346.6 13.7 337 20.3
2004-02-11 08:44:05 51°17.581 2°42.604 347 13.7 336 20.6
2004-02-11 08:44:10 51°17.598 2°42.593 346.5 13.5 336 20.7
2004-02-11 08:44:15 51°17.615 2°42.581 346.2 13.5 337 21.2
2004-02-11 08:44:19 51°17.629 2°42.572 346.8 13.3 338 21.2
2004-02-11 08:44:25 51°17.649 2°42.559 346.9 13.3 338 21.3
2004-02-11 08:44:30 51°17.667 2°42.548 347.1 13.5 338 21.6
2004-02-11 08:44:35 51°17.684 2°42.536 346.6 13.5 337 22.1
2004-02-11 08:44:39 51°17.697 2°42.527 346.4 13.4 338 21.8
2004-02-11 08:44:45 51°17.718 2°42.514 347.2 13.3 338 22.1
2004-02-11 08:44:50 51°17.735 2°42.503 346.9 13.4 338 22.2
2004-02-11 08:44:55 51°17.752 2°42.491 346.6 13.3 336 21.7
2004-02-11 08:45:00 51°17.769 2°42.48 346.6 13.3 338 22.2
2004-02-11 08:45:05 51°17.786 2°42.469 346.7 13.3 337 22.1
2004-02-11 08:45:09 51°17.801 2°42.459 346.9 13.4 338 22.4
2004-02-11 08:45:15 51°17.822 2°42.445 347 13.6 337 22.4
2004-02-11 08:45:19 51°17.836 2°42.436 346.8 13.6 337 22.5
2004-02-11 08:45:25 51°17.856 2°42.423 346.8 13.5 337 22.9
2004-02-11 08:45:29 51°17.87 2°42.413 346.4 13.6 337 22.8
2004-02-11 08:45:35 51°17.89 2°42.399 346.3 13.6 337 23
2004-02-11 08:45:40 51°17.907 2°42.387 345.8 13.5 337 23.1
2004-02-11 08:45:45 51°17.925 2°42.376 346.1 13.6 337 23.1
2004-02-11 08:45:50 51°17.942 2°42.364 346.4 13.5 337 23
2004-02-11 08:45:55 51°17.959 2°42.353 346.8 13.5 337 23
2004-02-11 08:45:59 51°17.973 2°42.344 346.7 13.5 337 22.9
2004-02-11 08:46:05 51°17.994 2°42.33 347.1 13.5 337 23.2
2004-02-11 08:46:09 51°18.007 2°42.321 346.7 13.5 336 23.5
2004-02-11 08:46:15 51°18.028 2°42.306 345.7 13.6 336 23.4
2004-02-11 08:46:19 51°18.042 2°42.296 345.2 13.6 335 23.4
2004-02-11 08:46:25 51°18.063 2°42.28 344.8 13.6 335 23.4
2004-02-11 08:46:30 51°18.08 2°42.267 344.2 13.7 334 23.3
2004-02-11 08:46:35 51°18.097 2°42.254 344.3 13.6 335 23.3
2004-02-11 08:46:39 51°18.11 2°42.243 344.4 13.6 334 23
2004-02-11 08:46:45 51°18.131 2°42.228 344.6 13.6 335 23
2004-02-11 08:46:50 51°18.148 2°42.216 344.4 13.4 335 22.8
2004-02-11 08:46:55 51°18.165 2°42.203 344.4 13.4 335 22.8
2004-02-11 08:46:59 51°18.178 2°42.193 344.4 13.4 335 22.9
2004-02-11 08:47:05 51°18.198 2°42.178 344.6 13.4 335 22.9
2004-02-11 08:47:10 51°18.215 2°42.165 343.9 13.3 335 22.7
2004-02-11 08:47:15 51°18.231 2°42.152 344.1 13.3 333 22.8
2004-02-11 08:47:19 51°18.245 2°42.141 343.6 13.8 335 23
2004-02-11 08:47:25 51°18.265 2°42.126 343.8 13.7 334 22.8
2004-02-11 08:47:30 51°18.282 2°42.113 343.9 13.4 335 22.7
2004-02-11 08:47:35 51°18.298 2°42.1 343.9 13.5 334 22.5
2004-02-11 08:47:39 51°18.312 2°42.09 344.2 13.4 335 22.5
2004-02-11 08:47:45 51°18.332 2°42.075 344.2 13.4 335 22.3
2004-02-11 08:47:50 51°18.349 2°42.063 344.4 13.4 335 22.4
2004-02-11 08:47:55 51°18.366 2°42.05 344.5 13.3 335 22.3
2004-02-11 08:47:59 51°18.379 2°42.04 344.3 13.3 334 22.5
2004-02-11 08:48:05 51°18.399 2°42.025 344.6 13.4 335 22.6
2004-02-11 08:48:10 51°18.416 2°42.012 344.2 13.3 334 22.6
2004-02-11 08:48:15 51°18.432 2°42 344.1 13.2 336 22.2
2004-02-11 08:48:20 51°18.449 2°41.988 344.2 13.3 336 22.3
2004-02-11 08:48:25 51°18.466 2°41.977 345.2 13.1 338 22.1
2004-02-11 08:48:29 51°18.48 2°41.969 346.8 13.1 339 22.4
2004-02-11 08:48:35 51°18.5 2°41.957 347.6 13 339 22.1
2004-02-11 08:48:39 51°18.513 2°41.949 348.1 13.1 341 22.2
2004-02-11 08:48:45 51°18.534 2°41.938 349.2 13.1 341 22.2
2004-02-11 08:48:50 51°18.551 2°41.929 349.7 13.2 341 22.2
2004-02-11 08:48:55 51°18.568 2°41.92 350.5 13.3 341 21.9
2004-02-11 08:48:59 51°18.582 2°41.913 349.8 13.4 341 22
2004-02-11 08:49:05 51°18.603 2°41.901 349.8 13.3 341 21.6
2004-02-11 08:49:10 51°18.62 2°41.891 349.6 13.3 341 21.5
2004-02-11 08:49:15 51°18.638 2°41.882 349.7 13.3 341 21.4
2004-02-11 08:49:19 51°18.652 2°41.874 349.9 13.3 341 21.5
2004-02-11 08:49:25 51°18.673 2°41.863 350.1 13.3 341 21.4
2004-02-11 08:49:30 51°18.691 2°41.853 350.1 13.4 341 21.2
2004-02-11 08:49:35 51°18.708 2°41.843 349.3 13.4 341 21.2
2004-02-11 08:49:39 51°18.722 2°41.835 349.4 13.5 341 21.2
2004-02-11 08:49:45 51°18.743 2°41.823 349.4 13.4 340 20.7
2004-02-11 08:49:49 51°18.758 2°41.816 349.3 13.5 341 20.4
2004-02-11 08:49:55 51°18.779 2°41.804 349.6 13.5 341 20.1
2004-02-11 08:49:59 51°18.793 2°41.796 349.4 13.5 341 20.4
2004-02-11 08:50:05 51°18.814 2°41.784 349.1 13.4 341 20.3
2004-02-11 08:50:10 51°18.832 2°41.774 349.1 13.4 340 20.5
2004-02-11 08:50:15 51°18.849 2°41.766 349.6 13.5 342 20.3
2004-02-11 08:50:20 51°18.867 2°41.756 349.8 13.5 340 20.4
2004-02-11 08:50:25 51°18.884 2°41.746 349.6 13.4 341 20.2
2004-02-11 08:50:29 51°18.899 2°41.738 349.6 13.1 342 20.3
2004-02-11 08:50:35 51°18.919 2°41.727 349.8 13.1 342 20
2004-02-11 08:50:40 51°18.936 2°41.717 349.8 13.3 341 19.9
2004-02-11 08:50:45 51°18.954 2°41.707 349.7 13.2 341 20
2004-02-11 08:50:50 51°18.971 2°41.697 349.1 13.2 340 19.8
2004-02-11 08:50:55 51°18.989 2°41.688 349.1 13.1 342 19.9
2004-02-11 08:50:59 51°19.002 2°41.681 350.4 13.1 342 20.1
2004-02-11 08:51:05 51°19.023 2°41.671 351.4 13 344 19.6
2004-02-11 08:51:10 51°19.04 2°41.664 352.4 12.5 345 19
2004-02-11 08:51:15 51°19.057 2°41.655 353.4 12.4 342 20
2004-02-11 08:51:20 51°19.074 2°41.649 354.3 12.5 345 19.7
2004-02-11 08:51:25 51°19.09 2°41.641 354.3 12.7 345 19.3
2004-02-11 08:51:30 51°19.107 2°41.634 354.1 12.7 346 19.5
2004-02-11 08:51:35 51°19.125 2°41.627 355.1 12.9 345 19.4
2004-02-11 08:51:41 51°19.145 2°41.619 354.9 12.8 346 19.4
2004-02-11 08:51:45 51°19.159 2°41.613 355.2 12.9 347 19.6
2004-02-11 08:51:50 51°19.177 2°41.607 355.2 13 346 19.4
2004-02-11 08:51:55 51°19.194 2°41.599 355.2 12.9 345 19.4
2004-02-11 08:52:00 51°19.212 2°41.592 354.9 13 346 19.4
2004-02-11 08:52:05 51°19.23 2°41.585 355.1 13 346 19.4
2004-02-11 08:52:09 51°19.244 2°41.579 354.8 13.2 346 19.4
2004-02-11 08:52:15 51°19.266 2°41.57 355.1 13.3 345 19.5
2004-02-11 08:52:19 51°19.28 2°41.564 354.8 13.2 346 19.5
2004-02-11 08:52:25 51°19.301 2°41.554 354.6 13.2 344 19
2004-02-11 08:52:30 51°19.319 2°41.547 354.1 13.2 345 19
2004-02-11 08:52:35 51°19.337 2°41.539 354.6 13.3 345 18.8
2004-02-11 08:52:39 51°19.351 2°41.533 354.8 13.3 344 18.5
2004-02-11 08:52:45 51°19.372 2°41.524 354.5 13.1 344 18.6
2004-02-11 08:52:49 51°19.386 2°41.518 354.3 13.1 345 18.1
2004-02-11 08:52:55 51°19.407 2°41.508 354.6 13.1 345 18.1
2004-02-11 08:52:59 51°19.421 2°41.502 354.8 13.2 345 18.1
2004-02-11 08:53:05 51°19.442 2°41.495 355.6 13.3 347 17.9
2004-02-11 08:53:10 51°19.46 2°41.488 356.3 13.1 347 17.9
2004-02-11 08:53:15 51°19.478 2°41.483 357.2 13.1 349 18.8
2004-02-11 08:53:19 51°19.493 2°41.478 358.5 13.3 349 19.3
2004-02-11 08:53:25 51°19.514 2°41.472 359 13.1 350 18.9
2004-02-11 08:53:30 51°19.532 2°41.467 359.5 13.1 351 18.8
2004-02-11 08:53:35 51°19.55 2°41.462 0.3 13.2 350 18.5
2004-02-11 08:53:39 51°19.564 2°41.458 359.7 13.2 350 18.3
2004-02-11 08:53:45 51°19.586 2°41.452   13 351 18.2
2004-02-11 08:53:49 51°19.6 2°41.448 0.2 13.1 350 18.1
2004-02-11 08:53:55 51°19.621 2°41.442 0.3 13.1 351 17.9
2004-02-11 08:53:59 51°19.635 2°41.439 0.1 13.1 350 16.6
2004-02-11 08:54:05 51°19.657 2°41.433 0.8 13.1 350 15.5
2004-02-11 08:54:09 51°19.671 2°41.428 0.1 13.1 348 14.1
2004-02-11 08:54:15 51°19.692 2°41.422 359.7 12.9 351 14.6
2004-02-11 08:54:19 51°19.706 2°41.418 359.2 13 349 14.7
2004-02-11 08:54:25 51°19.728 2°41.414 1 13 349 15.1
2004-02-11 08:54:29 51°19.742 2°41.411 2.3 12.9 353 16.1
2004-02-11 08:54:35 51°19.764 2°41.408 3 13 355 16.4
2004-02-11 08:54:40 51°19.782 2°41.404 3.9 13 353 16.8
2004-02-11 08:54:45 51°19.799 2°41.402 4.9 13 353 16.7
2004-02-11 08:54:50 51°19.817 2°41.399 4.8 13.1 355 15.6
2004-02-11 08:54:55 51°19.836 2°41.398 5.4 13.1 357 17.5
2004-02-11 08:54:59 51°19.85 2°41.395 5.6 13 354 17.3
2004-02-11 08:55:05 51°19.872 2°41.393 5 13.1 356 17.4
2004-02-11 08:55:10 51°19.89 2°41.391 5.1 13.1 357 17.5
2004-02-11 08:55:15 51°19.908 2°41.39 6 13.1 357 17.3
2004-02-11 08:55:20 51°19.926 2°41.388 5.7 13.1 357 16.9
2004-02-11 08:55:25 51°19.944 2°41.387 6.8 13.1 358 17.5
2004-02-11 08:55:30 51°19.962 2°41.387 7.6 13   17.6
2004-02-11 08:55:35 51°19.98 2°41.387 9 13 1 17.5
2004-02-11 08:55:40 51°19.998 2°41.388 10.3 13 1 17.6
2004-02-11 08:55:45 51°20.016 2°41.39 11.6 13 3 17.5
2004-02-11 08:55:50 51°20.034 2°41.393 12.7 12.9 5 17.7
2004-02-11 08:55:55 51°20.052 2°41.396 13.9 13 6 18
2004-02-11 08:56:00 51°20.07 2°41.397 14.5 13.1 4 18.4
2004-02-11 08:56:05 51°20.088 2°41.401 14.5 13 6 19.2
2004-02-11 08:56:09 51°20.103 2°41.402 14.5 13.2 5 19.5
2004-02-11 08:56:15 51°20.125 2°41.406 14.5 13.1 5 20.2
2004-02-11 08:56:19 51°20.139 2°41.408 14.5 12.9 6 20.6
2004-02-11 08:56:25 51°20.161 2°41.412 14.6 12.9 6 20.3
2004-02-11 08:56:29 51°20.175 2°41.415 15.2 13 6 20.8
2004-02-11 08:56:35 51°20.197 2°41.418 15.4 13 5 21.4
2004-02-11 08:56:39 51°20.211 2°41.42 14.5 12.9 6 21.3
2004-02-11 08:56:45 51°20.233 2°41.423 14.6 13 7 21.4
2004-02-11 08:56:50 51°20.251 2°41.426 14.3 13 6 21.6
2004-02-11 08:56:55 51°20.269 2°41.428 14.5 13.1 5 21.2
2004-02-11 08:57:00 51°20.286 2°41.431 13.9 13 4 20.7
2004-02-11 08:57:05 51°20.304 2°41.433 14.1 12.6 6 20.3
2004-02-11 08:57:10 51°20.321 2°41.437 14.4 12.5 7 20.7
2004-02-11 08:57:15 51°20.338 2°41.439 15.5 12.5 7 19.6
2004-02-11 08:57:19 51°20.352 2°41.442 14.5 12.5 5 19.4
2004-02-11 08:57:25 51°20.371 2°41.448 16.7 11.3 12 18.8
2004-02-11 08:57:29 51°20.383 2°41.452 19.8 10.9 11 18.3
2004-02-11 08:57:35 51°20.4 2°41.459 21.7 10.6 15 19.3
2004-02-11 08:57:40 51°20.413 2°41.465 23.2 10 15 18.7
2004-02-11 08:57:45 51°20.423 2°41.475 29 8.5 31 20
2004-02-11 08:57:50 51°20.432 2°41.485 37 7.7 37 19.5
2004-02-11 08:57:55 51°20.438 2°41.497 45.9 7 48 18.9
2004-02-11 08:57:59 51°20.441 2°41.506 54.3 5.6 60 18.5
2004-02-11 08:58:05 51°20.444 2°41.518 64.1 5.3 68 17.9
2004-02-11 08:58:10 51°20.445 2°41.529 73 4.7 76 18.1
2004-02-11 08:58:15 51°20.445 2°41.538 81.7 4.5 89 18.4
2004-02-11 08:58:19 51°20.445 2°41.546 89.7 4 94 19
2004-02-11 08:58:25 51°20.443 2°41.555 95.4 3.5 102 19.9
2004-02-11 08:58:30 51°20.442 2°41.563 99 3.3 104 20.6
2004-02-11 08:58:35 51°20.441 2°41.569 102 3.2 110 20.6
2004-02-11 08:58:39 51°20.44 2°41.574 102.3 2.8 109 20.8
2004-02-11 08:58:45 51°20.438 2°41.58 101.8 2.4 113 20.7
2004-02-11 08:58:49 51°20.438 2°41.582 100 1.6 112 20.6
2004-02-11 08:58:55 51°20.437 2°41.584 96.5 1.1 120 20.5
2004-02-11 08:58:59 51°20.436 2°41.585 91.9 0.9 160 20.5
2004-02-11 08:59:05 51°20.435 2°41.585 88.3 0.9 160 20.4
2004-02-11 08:59:10 51°20.434 2°41.585 85.3 0.5 168 20.3
2004-02-11 08:59:15 51°20.434 2°41.585 83.7 0.3 179 20.2
2004-02-11 08:59:19 51°20.433 2°41.585 80.6 0.4 186 20.4
2004-02-11 08:59:25 51°20.433 2°41.585 78.3 0.4 173 20.6
2004-02-11 08:59:29 51°20.432 2°41.585 75.9 0.4 180 20.8
2004-02-11 08:59:35 51°20.432 2°41.585 74.3 0.3 178 20.7
2004-02-11 08:59:40 51°20.431 2°41.585 71.8 0.2 194 20.8
2004-02-11 08:59:45 51°20.431 2°41.585 69.8 0.1 224 20.7
2004-02-11 08:59:49 51°20.431 2°41.584 67.7 0.3 187 20.9
2004-02-11 08:59:55 51°20.43 2°41.584 66.1 0.1 222 20.7
2004-02-11 08:59:59 51°20.43 2°41.584 64.8 0.3 180 20.5
2004-02-11 09:00:05 51°20.43 2°41.584 64.1 0.2 160 20.6
2004-02-11 09:00:09 51°20.429 2°41.583 62.5 0.3 194 20.6
2004-02-11 09:00:15 51°20.429 2°41.583 62 0.3 252 20.3
2004-02-11 09:00:20 51°20.429 2°41.582 60.4 0.2 176 20
2004-02-11 09:00:25 51°20.428 2°41.582 59.9 0.2 219 20.1
2004-02-11 09:00:29 51°20.428 2°41.582 59 0.4 247 20.1
2004-02-11 09:00:35 51°20.427 2°41.582 57.5 0.4 165 20
2004-02-11 09:00:39 51°20.427 2°41.581 56.7 0.3 228 19.8
2004-02-11 09:00:45 51°20.427 2°41.58 56 0.4 229 19.8
2004-02-11 09:00:50 51°20.426 2°41.58 55.3 0.3 235 20.1
2004-02-11 09:00:55 51°20.426 2°41.579 54.4 0.3 240 20.5
2004-02-11 09:00:59 51°20.426 2°41.578 53.2 0.4 245 20.7
2004-02-11 09:01:05 51°20.425 2°41.577 52.4 0.4 245 20.7
2004-02-11 09:01:09 51°20.425 2°41.576 51.3 0.3 248 20.7
2004-02-11 09:01:15 51°20.425 2°41.576 49.3 0.5 241 20.6
2004-02-11 09:01:20 51°20.424 2°41.575 48.8 0.5 241 20.4
2004-02-11 09:01:25 51°20.424 2°41.574 47.9 0.3 257 20.4
2004-02-11 09:01:29 51°20.424 2°41.574 46.9 0.3 240 20.5
2004-02-11 09:01:35 51°20.424 2°41.573 46.1 0.3 216 20.6
2004-02-11 09:01:41 51°20.424 2°41.572 45.5 0.2 252 20.4
2004-02-11 09:01:45 51°20.424 2°41.571 45.3 0.4 236 20.3
2004-02-11 09:01:49 51°20.424 2°41.571 44.7 0.5 238 20.2
2004-02-11 09:01:55 51°20.423 2°41.57 44.3 0.4 216 20.4
2004-02-11 09:01:59 51°20.423 2°41.569 43.4 0.6 263 20.4
2004-02-11 09:02:05 51°20.423 2°41.568 42.8 0.4 227 20.5
2004-02-11 09:02:09 51°20.423 2°41.567 42.4 0.5 257 20.6
2004-02-11 09:02:15 51°20.422 2°41.567 41.7 0.5 243 20.6
2004-02-11 09:02:19 51°20.422 2°41.565 41 0.5 276 20.5
2004-02-11 09:02:25 51°20.422 2°41.565 40.6 0.4 272 20.3
2004-02-11 09:02:29 51°20.422 2°41.565 38.8 0.4 280 20.4
2004-02-11 09:02:35 51°20.422 2°41.564 37.3 0.1 282 20.4
2004-02-11 09:02:39 51°20.422 2°41.563 35.4 0.6 284 20.3
2004-02-11 09:02:45 51°20.422 2°41.562 34.6 0.5 288 20.2
2004-02-11 09:02:49 51°20.423 2°41.561 33.5 0.5 288 20.2
2004-02-11 09:02:55 51°20.423 2°41.56 31.8 0.5 300 20.1
2004-02-11 09:02:59 51°20.423 2°41.56 30 0.4 312 20
2004-02-11 09:03:05 51°20.424 2°41.559 29.2 0.5 316 19.8
2004-02-11 09:03:09 51°20.424 2°41.558 27.3 0.6 301 19.6
2004-02-11 09:03:15 51°20.425 2°41.556 25.7 0.6 303 19.5
2004-02-11 09:03:19 51°20.425 2°41.556 23.8 0.5 327 19.2
2004-02-11 09:03:25 51°20.426 2°41.555 23 0.4 301 18.9
2004-02-11 09:03:30 51°20.426 2°41.554 23.1 0.5 288 19
2004-02-11 09:03:35 51°20.426 2°41.553 22.5 0.5 287 19
2004-02-11 09:03:39 51°20.426 2°41.552 22 0.6 284 19
2004-02-11 09:03:45 51°20.426 2°41.551 22.5 0.5 281 19.1
2004-02-11 09:03:50 51°20.426 2°41.549 22.3 0.5 285 19.2
2004-02-11 09:03:55 51°20.427 2°41.548 22.3 0.5 289 19.4
2004-02-11 09:03:59 51°20.427 2°41.547 20.6 0.7 297 19.5
2004-02-11 09:04:05 51°20.428 2°41.545 19.7 0.7 297 19.5
2004-02-11 09:04:09 51°20.428 2°41.545 18.5 0.9 297 19.3
2004-02-11 09:04:15 51°20.429 2°41.543 17.8 0.7 305 19.2
2004-02-11 09:04:19 51°20.43 2°41.542 16 0.9 309 19
2004-02-11 09:04:25 51°20.431 2°41.54 14.2 0.9 312 18.9
2004-02-11 09:04:30 51°20.432 2°41.538 12.3 1.1 314 19
2004-02-11 09:04:35 51°20.433 2°41.536 10.7 0.9 315 19
2004-02-11 09:04:40 51°20.434 2°41.535 9.2 1 311 19
2004-02-11 09:04:45 51°20.435 2°41.533 8.4 1.2 314 18.8
2004-02-11 09:04:49 51°20.436 2°41.531 8.2 1.1 314 18.8
2004-02-11 09:04:55 51°20.437 2°41.529 8.6 1.3 313 18.8
2004-02-11 09:05:00 51°20.438 2°41.528 8 1.2 320 19
2004-02-11 09:05:05 51°20.44 2°41.526 7.9 1.4 316 19
2004-02-11 09:05:10 51°20.441 2°41.524 7.6 1.2 323 19
2004-02-11 09:05:15 51°20.443 2°41.522 7.4 1.4 320 19
2004-02-11 09:05:19 51°20.444 2°41.521 7.5 1.4 325 19
2004-02-11 09:05:25 51°20.446 2°41.518 7.1 1.3 321 19
2004-02-11 09:05:29 51°20.448 2°41.517 7.1 1.4 326 18.9
2004-02-11 09:05:35 51°20.45 2°41.514 7.4 1.6 323 19
2004-02-11 09:05:39 51°20.451 2°41.513 7.2 1.5 327 18.9
2004-02-11 09:05:45 51°20.453 2°41.511 7 1.6 318 18.8
2004-02-11 09:05:50 51°20.455 2°41.509 7.1 1.6 326 18.7
2004-02-11 09:05:55 51°20.457 2°41.507 7.4 1.6 327 18.7
2004-02-11 09:06:00 51°20.459 2°41.505 7.5 1.7 329 19
2004-02-11 09:06:05 51°20.46 2°41.503 7.7 1.7 326 19.1
2004-02-11 09:06:09 51°20.462 2°41.502 7.9 1.4 325 19.1
2004-02-11 09:06:15 51°20.464 2°41.499 8.1 1.5 320 19.1
2004-02-11 09:06:20 51°20.465 2°41.498 8.1 1.5 320 19
2004-02-11 09:06:25 51°20.466 2°41.496 8.1 1.2 320 19.1
2004-02-11 09:06:29 51°20.467 2°41.494 8.2 1.2 315 19.2
2004-02-11 09:06:35 51°20.469 2°41.492 8.5 1.3 314 19.2
2004-02-11 09:06:40 51°20.47 2°41.49 8.7 1.2 319 19.2
2004-02-11 09:06:45 51°20.471 2°41.488 8.8 1.4 310 19.1
2004-02-11 09:06:49 51°20.472 2°41.486 8.9 1.3 316 18.9
2004-02-11 09:06:55 51°20.474 2°41.484 9.2 1.3 320 19
2004-02-11 09:06:59 51°20.475 2°41.483 10 1.4 320 19
2004-02-11 09:07:05 51°20.478 2°41.481 10.8 1.7 343 19.1
2004-02-11 09:07:10 51°20.48 2°41.48 13 1.8 345 18.9
2004-02-11 09:07:15 51°20.482 2°41.479 15.7 1.7 342 18.9
2004-02-11 09:07:20 51°20.485 2°41.479 21.2 1.8 354 18.9
2004-02-11 09:07:25 51°20.487 2°41.479 25.5 2 1 19.1
2004-02-11 09:07:29 51°20.49 2°41.48 32.6 1.9 17 19
2004-02-11 09:07:35 51°20.493 2°41.483 39.6 2.1 26 19.1
2004-02-11 09:07:40 51°20.495 2°41.486 47.1 2.2 38 18.9
2004-02-11 09:07:45 51°20.497 2°41.491 54.7 2.2 46 19
2004-02-11 09:07:49 51°20.498 2°41.495 62.8 2.6 63 19.5
2004-02-11 09:07:55 51°20.499 2°41.502 73 2.8 74 19.2
2004-02-11 09:08:01 51°20.499 2°41.51 78.9 2.8 78 19.2
2004-02-11 09:08:05 51°20.499 2°41.516 86 3.3 93 19
2004-02-11 09:08:09 51°20.499 2°41.523 93.1 3.6 102 19.1
2004-02-11 09:08:15 51°20.496 2°41.532 100.1 3.9 111 19.4
2004-02-11 09:08:19 51°20.494 2°41.538 108.8 4 119 19
2004-02-11 09:08:25 51°20.49 2°41.548 115.4 4.3 122 19.6
2004-02-11 09:08:29 51°20.486 2°41.553 122.1 4.7 138 19.9
2004-02-11 09:08:35 51°20.48 2°41.562 127.7 4.8 138 19.8
2004-02-11 09:08:40 51°20.474 2°41.568 135 5 149 20
2004-02-11 09:08:45 51°20.467 2°41.571 140.4 5.3 159 20.3
2004-02-11 09:08:50 51°20.459 2°41.576 147.9 5.5 163 19.9
2004-02-11 09:08:55 51°20.451 2°41.578 155.4 5.8 168 19.7
2004-02-11 09:09:00 51°20.443 2°41.578 161.7 5.8 173 20.2
2004-02-11 09:09:05 51°20.434 2°41.577 168.3 6.3 182 20.2
2004-02-11 09:09:10 51°20.424 2°41.575 176.8 7.2 190 20.4
2004-02-11 09:09:15 51°20.414 2°41.569 183.7 7.5 197 20.2
2004-02-11 09:09:19 51°20.405 2°41.564 193.8 7.9 201 19.7
2004-02-11 09:09:25 51°20.393 2°41.552 199.9 7.9 201 19.9
2004-02-11 09:09:29 51°20.383 2°41.545 204.6 9.2 207 20.2
2004-02-11 09:09:35 51°20.37 2°41.531 206.4 9.2 207 20.4
2004-02-11 09:09:39 51°20.36 2°41.522 209.2 10 211 20.8
2004-02-11 09:09:45 51°20.347 2°41.505 212 10.3 219 20.5
2004-02-11 09:09:49 51°20.337 2°41.494 214.8 10.6 217 20
2004-02-11 09:09:55 51°20.324 2°41.475 217.5 10.7 222 20.3
2004-02-11 09:10:00 51°20.312 2°41.459 220.7 10.8 221 20.3
2004-02-11 09:10:05 51°20.301 2°41.441 221.5 10.8 221 20.3
2004-02-11 09:10:09 51°20.292 2°41.428 223 11.1 223 20.4
2004-02-11 09:10:15 51°20.279 2°41.406 223.3 11.4 226 20.7
2004-02-11 09:10:19 51°20.27 2°41.393 225.9 11.2 224 20.1
2004-02-11 09:10:25 51°20.256 2°41.373 224.1 11.2 223 19.6
2004-02-11 09:10:30 51°20.243 2°41.358 221.9 11.4 216 20.1
2004-02-11 09:10:35 51°20.23 2°41.342 216.7 11.5 217 20.9
2004-02-11 09:10:39 51°20.22 2°41.333 215 11 213 20.7
2004-02-11 09:10:45 51°20.203 2°41.319 208.4 11.5 208 20.9
2004-02-11 09:10:50 51°20.19 2°41.308 205.9 11.3 208 19.6
2004-02-11 09:10:55 51°20.177 2°41.298 204.6 10.3 206 19.8
2004-02-11 09:10:59 51°20.167 2°41.291 203 9.7 204 20.1
2004-02-11 09:11:05 51°20.153 2°41.281 202.1 9.3 204 20.5
2004-02-11 09:11:10 51°20.141 2°41.273 200.3 9 204 20.9
2004-02-11 09:11:15 51°20.13 2°41.266 200.7 8.5 203 20.7
2004-02-11 09:11:19 51°20.122 2°41.26 199.1 8.3 201 21
2004-02-11 09:11:25 51°20.109 2°41.252 199.2 8.3 206 21.2
2004-02-11 09:11:29 51°20.102 2°41.246 198.8 7.6 206 20.6
2004-02-11 09:11:35 51°20.091 2°41.242 197.3 6.9 195 20.6
2004-02-11 09:11:39 51°20.084 2°41.238 192 6.5 194 20.7
2004-02-11 09:11:45 51°20.074 2°41.236 185 6.3 189 20.3
2004-02-11 09:11:49 51°20.067 2°41.237 177.9 5.7 177 20.4
2004-02-11 09:11:55 51°20.058 2°41.239 169.1 5.5 171 20.6
2004-02-11 09:11:59 51°20.053 2°41.242 157.8 5.3 164 20.4
2004-02-11 09:12:05 51°20.046 2°41.249 152 5.1 160 20.3
2004-02-11 09:12:09 51°20.041 2°41.253 141.5 4.9 146 20
2004-02-11 09:12:15 51°20.037 2°41.264 133.6 4.7 125 19.7
2004-02-11 09:12:20 51°20.033 2°41.272 123.2 4.8 129 19.9
2004-02-11 09:12:25 51°20.032 2°41.282 113.1 4.5 108 19.3
2004-02-11 09:12:29 51°20.031 2°41.289 104.3 4.3 97 18.8
2004-02-11 09:12:35 51°20.032 2°41.3 95 4.3 97 18.2
2004-02-11 09:12:39 51°20.033 2°41.307 85.4 4 78 18
2004-02-11 09:12:45 51°20.037 2°41.317 76.8 4.1 67 18
2004-02-11 09:12:49 51°20.04 2°41.323 68.5 4.2 53 17.7
2004-02-11 09:12:55 51°20.045 2°41.33 58 4.1 43 18.2
2004-02-11 09:12:59 51°20.048 2°41.335 51.5 4.3 38 18.4
2004-02-11 09:13:05 51°20.055 2°41.339 43.6 4.6 23 19.1
2004-02-11 09:13:09 51°20.06 2°41.341 35.5 4.7 19 19.7
2004-02-11 09:13:15 51°20.068 2°41.341 25.4 4.6 3 19.9
2004-02-11 09:13:19 51°20.073 2°41.341 17.3 4 357 20.1
2004-02-11 09:13:25 51°20.079 2°41.339 10.1 3.9 349 20.4
2004-02-11 09:13:30 51°20.084 2°41.336 6.1 3.7 342 20.5
2004-02-11 09:13:35 51°20.088 2°41.333 1.4 3.7 339 20.2
2004-02-11 09:13:40 51°20.092 2°41.33 356.9 3.5 336 19.9
2004-02-11 09:13:45 51°20.096 2°41.326 352.7 3.4 330 19.6
2004-02-11 09:13:49 51°20.099 2°41.322 348.2 3.4 325 19.3
2004-02-11 09:13:55 51°20.103 2°41.316 342.1 3.2 316 19.5
2004-02-11 09:14:00 51°20.106 2°41.31 337 3.2 316 19.7
2004-02-11 09:14:05 51°20.108 2°41.305 333.5 2.7 305 19.9
2004-02-11 09:14:09 51°20.109 2°41.302 331.5 2.2 297 20.1
2004-02-11 09:14:15 51°20.109 2°41.298 330.7 1.7 280 20.1
2004-02-11 09:14:19 51°20.109 2°41.295 329.9 1.4 266 20.2
2004-02-11 09:14:25 51°20.107 2°41.293 329.5 1.1 235 20.3
2004-02-11 09:14:30 51°20.106 2°41.291 328.9 1.1 235 20.3
2004-02-11 09:14:35 51°20.104 2°41.29 328.8 1.4 200 20.1
2004-02-11 09:14:40 51°20.101 2°41.289 328.3 1.8 196 -999
2004-02-11 09:14:45 51°20.099 2°41.289 328 1.6 197 -999
2004-02-11 09:14:50 51°20.097 2°41.288 327.1 1.5 199 -999
2004-02-11 09:14:55 51°20.096 2°41.286 327 1.1 209 -999
2004-02-11 09:15:01 51°20.094 2°41.283 326.5 1.5 235 -999
2004-02-11 09:15:05 51°20.093 2°41.28 325.5 1.7 254 -999
2004-02-11 09:15:10 51°20.093 2°41.277 325.7 1.7 268 19.8
2004-02-11 09:15:15 51°20.094 2°41.272 327.2 2 282 20
2004-02-11 09:15:21 51°20.095 2°41.267 328.1 2.4 285 -999
2004-02-11 09:15:25 51°20.096 2°41.263 331.4 2.2 285 4.9
2004-02-11 09:15:30 51°20.097 2°41.258 333.2 2 288 5.3
2004-02-11 09:15:35 51°20.098 2°41.254 334.9 2.1 287 20.6
2004-02-11 09:15:40 51°20.099 2°41.25 336 2 286 20.6
2004-02-11 09:15:45 51°20.1 2°41.246 337.3 1.8 294 20.6
2004-02-11 09:15:49 51°20.1 2°41.242 338 1.8 294 5.6
2004-02-11 09:15:55 51°20.102 2°41.238 338.4 1.9 290 5
2004-02-11 09:16:00 51°20.102 2°41.234 340.2 1.8 288 20.8
2004-02-11 09:16:05 51°20.103 2°41.231 342.1 1.6 285 20.4
2004-02-11 09:16:09 51°20.104 2°41.227 343.9 1.8 288 20.4
2004-02-11 09:16:15 51°20.104 2°41.223 345.4 1.7 281 20.2